createdAt,value
2023-04-29T00:01:26.051Z,70.00
2023-04-29T00:03:53.630Z,70.10
2023-04-29T00:06:21.530Z,70.00
2023-04-29T00:08:48.498Z,70.00
2023-04-29T00:11:15.540Z,69.80
2023-04-29T00:13:42.884Z,70.10
2023-04-29T00:16:10.510Z,70.00
2023-04-29T00:18:37.964Z,70.00
2023-04-29T00:21:08.127Z,70.00
2023-04-29T00:23:35.291Z,70.00
2023-04-29T00:26:02.406Z,70.00
2023-04-29T00:28:29.430Z,70.00
2023-04-29T00:30:57.173Z,70.00
2023-04-29T00:33:24.318Z,70.10
2023-04-29T00:35:51.681Z,70.00
2023-04-29T00:38:18.863Z,70.20
2023-04-29T00:40:46.215Z,70.10
2023-04-29T00:43:13.690Z,70.90
2023-04-29T00:45:40.744Z,70.00
2023-04-29T00:48:07.968Z,70.00
2023-04-29T00:50:36.631Z,70.10
2023-04-29T00:53:03.984Z,70.10
2023-04-29T00:55:33.338Z,70.00
2023-04-29T00:58:02.536Z,70.10
2023-04-29T01:00:31.169Z,70.10
2023-04-29T01:02:59.746Z,70.10
2023-04-29T01:05:27.904Z,70.10
2023-04-29T01:08:22.560Z,70.10
2023-04-29T01:11:11.698Z,70.10
2023-04-29T01:13:51.748Z,70.10
2023-04-29T01:16:25.968Z,70.10
2023-04-29T01:18:58.578Z,70.10
2023-04-29T01:21:32.026Z,70.10
2023-04-29T01:23:59.061Z,70.10
2023-04-29T01:26:33.286Z,70.10
2023-04-29T01:29:54.025Z,70.10
2023-04-29T01:32:51.135Z,70.20
2023-04-29T01:36:02.330Z,70.20
2023-04-29T01:39:02.837Z,70.30
2023-04-29T01:42:02.145Z,70.20
2023-04-29T01:44:33.050Z,70.20
2023-04-29T01:47:01.690Z,70.10
2023-04-29T01:49:37.493Z,70.20
2023-04-29T01:52:05.614Z,70.20
2023-04-29T01:54:36.330Z,70.20
2023-04-29T01:57:04.468Z,70.30
2023-04-29T01:59:52.492Z,70.30
2023-04-29T02:02:38.685Z,70.20
2023-04-29T02:05:15.813Z,70.30
2023-04-29T02:07:50.267Z,70.30
2023-04-29T02:10:17.700Z,70.30
2023-04-29T02:12:47.156Z,70.30
2023-04-29T02:15:15.130Z,70.30
2023-04-29T02:17:42.268Z,70.30
2023-04-29T02:20:10.413Z,70.30
2023-04-29T02:22:37.358Z,70.30
2023-04-29T02:25:04.892Z,70.40
2023-04-29T02:27:31.960Z,70.20
2023-04-29T02:29:59.036Z,70.30
2023-04-29T02:32:26.343Z,70.30
2023-04-29T02:34:53.543Z,70.30
2023-04-29T02:37:21.894Z,71.30
2023-04-29T02:39:48.988Z,70.40
2023-04-29T02:42:15.883Z,70.40
2023-04-29T02:44:42.968Z,70.40
2023-04-29T02:47:10.072Z,70.40
2023-04-29T02:49:37.066Z,70.30
2023-04-29T02:52:04.753Z,70.30
2023-04-29T02:54:32.159Z,70.30
2023-04-29T02:56:59.402Z,70.40
2023-04-29T02:59:26.647Z,70.30
2023-04-29T03:01:54.601Z,71.30
2023-04-29T03:04:21.638Z,70.40
2023-04-29T03:06:49.395Z,70.30
2023-04-29T03:09:17.360Z,70.40
2023-04-29T03:11:46.649Z,70.40
2023-04-29T03:14:13.703Z,70.40
2023-04-29T03:16:40.846Z,70.40
2023-04-29T03:19:07.782Z,70.40
2023-04-29T03:21:34.746Z,70.40
2023-04-29T03:24:01.789Z,70.40
2023-04-29T03:26:33.774Z,70.40
2023-04-29T03:29:00.809Z,70.40
2023-04-29T03:31:27.819Z,70.50
2023-04-29T03:33:54.822Z,70.50
2023-04-29T03:36:23.183Z,70.50
2023-04-29T03:39:06.436Z,70.50
2023-04-29T03:41:33.808Z,70.50
2023-04-29T03:44:01.008Z,70.40
2023-04-29T03:46:29.718Z,70.50
2023-04-29T03:48:57.022Z,70.50
2023-04-29T03:51:25.338Z,70.50
2023-04-29T03:53:57.900Z,70.50
2023-04-29T03:56:26.180Z,70.50
2023-04-29T03:58:53.967Z,70.50
2023-04-29T04:01:23.333Z,70.50
2023-04-29T04:03:50.845Z,70.50
2023-04-29T04:06:18.033Z,70.50
2023-04-29T04:08:45.926Z,70.40
2023-04-29T04:11:19.571Z,70.50
2023-04-29T04:13:52.038Z,70.50
2023-04-29T04:16:20.136Z,70.50
2023-04-29T04:18:47.062Z,70.50
2023-04-29T04:21:14.638Z,70.50
2023-04-29T04:23:46.045Z,70.50
2023-04-29T04:26:18.561Z,70.50
2023-04-29T04:29:02.507Z,70.50
2023-04-29T04:31:39.025Z,70.50
2023-04-29T04:34:07.804Z,70.50
2023-04-29T04:36:35.494Z,70.60
2023-04-29T04:39:02.660Z,70.70
2023-04-29T04:41:31.995Z,70.60
2023-04-29T04:43:59.648Z,70.60
2023-04-29T04:46:46.858Z,70.60
2023-04-29T04:49:28.089Z,70.60
2023-04-29T04:51:55.572Z,70.60
2023-04-29T04:54:22.775Z,70.60
2023-04-29T04:56:54.138Z,70.70
2023-04-29T04:59:21.242Z,70.60
2023-04-29T05:01:48.309Z,70.70
2023-04-29T05:04:16.398Z,70.60
2023-04-29T05:06:43.660Z,70.70
2023-04-29T05:09:10.874Z,70.70
2023-04-29T05:11:38.471Z,70.60
2023-04-29T05:14:10.137Z,70.70
2023-04-29T05:16:37.319Z,70.70
2023-04-29T05:19:04.235Z,70.70
2023-04-29T05:21:35.697Z,70.70
2023-04-29T05:24:02.812Z,70.80
2023-04-29T05:26:29.952Z,70.70
2023-04-29T05:29:01.190Z,70.70
2023-04-29T05:31:31.293Z,70.80
2023-04-29T05:34:03.800Z,70.80
2023-04-29T05:36:31.834Z,70.80
2023-04-29T05:38:59.089Z,70.80
2023-04-29T05:41:26.796Z,70.80
2023-04-29T05:44:02.686Z,70.90
2023-04-29T05:46:32.009Z,70.90
2023-04-29T05:48:59.440Z,70.70
2023-04-29T05:51:28.141Z,70.80
2023-04-29T05:53:55.390Z,70.90
2023-04-29T05:56:23.386Z,70.90
2023-04-29T05:58:50.509Z,70.80
2023-04-29T06:01:18.308Z,70.80
2023-04-29T06:03:46.410Z,70.90
2023-04-29T06:06:36.822Z,70.90
2023-04-29T06:09:26.475Z,70.90
2023-04-29T06:11:56.093Z,70.90
2023-04-29T06:14:23.466Z,70.90
2023-04-29T06:16:51.041Z,70.90
2023-04-29T06:19:18.071Z,70.90
2023-04-29T06:21:45.218Z,71.00
2023-04-29T06:24:12.290Z,71.00
2023-04-29T06:26:39.716Z,71.10
2023-04-29T06:29:06.968Z,71.20
2023-04-29T06:31:36.201Z,71.30
2023-04-29T06:34:04.725Z,71.30
2023-04-29T06:36:33.279Z,71.50
2023-04-29T06:39:18.577Z,71.70
2023-04-29T06:42:11.415Z,71.70
2023-04-29T06:44:52.113Z,71.70
2023-04-29T06:47:45.238Z,71.90
2023-04-29T06:50:13.965Z,72.00
2023-04-29T06:52:41.142Z,72.00
2023-04-29T06:55:11.279Z,72.10
2023-04-29T06:57:39.111Z,72.20
2023-04-29T07:00:07.448Z,72.30
2023-04-29T07:02:37.204Z,72.30
2023-04-29T07:05:08.497Z,73.20
2023-04-29T07:07:36.517Z,72.50
2023-04-29T07:10:03.865Z,72.50
2023-04-29T07:12:31.062Z,72.50
2023-04-29T07:14:59.156Z,72.50
2023-04-29T07:17:26.311Z,72.50
2023-04-29T07:19:53.841Z,72.50
2023-04-29T07:22:21.219Z,72.60
2023-04-29T07:24:48.126Z,72.60
2023-04-29T07:27:15.619Z,72.60
2023-04-29T07:29:42.543Z,72.70
2023-04-29T07:32:09.503Z,72.70
2023-04-29T07:34:38.154Z,72.70
2023-04-29T07:37:05.089Z,72.70
2023-04-29T07:39:32.220Z,72.70
2023-04-29T07:42:00.196Z,72.70
2023-04-29T07:44:28.594Z,72.70
2023-04-29T07:46:55.985Z,72.80
2023-04-29T07:49:23.494Z,72.70
2023-04-29T07:51:50.447Z,72.70
2023-04-29T07:54:19.432Z,72.70
2023-04-29T07:56:46.618Z,72.60
2023-04-29T07:59:13.916Z,72.60
2023-04-29T08:01:42.426Z,72.60
2023-04-29T08:04:09.656Z,72.70
2023-04-29T08:06:47.552Z,72.80
2023-04-29T08:09:14.656Z,72.80
2023-04-29T08:11:43.301Z,72.90
2023-04-29T08:14:13.064Z,72.90
2023-04-29T08:16:40.279Z,73.00
2023-04-29T08:19:07.241Z,73.00
2023-04-29T08:21:34.866Z,73.00
2023-04-29T08:24:02.063Z,73.10
2023-04-29T08:26:29.355Z,73.10
2023-04-29T08:28:56.333Z,73.10
2023-04-29T08:31:23.416Z,73.10
2023-04-29T08:33:50.609Z,73.10
2023-04-29T08:36:17.712Z,73.10
2023-04-29T08:38:44.731Z,73.10
2023-04-29T08:41:11.946Z,73.00
2023-04-29T08:43:42.254Z,72.90
2023-04-29T08:46:10.927Z,72.80
2023-04-29T08:48:41.915Z,72.90
2023-04-29T08:51:13.888Z,72.90
2023-04-29T08:53:41.013Z,72.90
2023-04-29T08:56:23.092Z,72.80
2023-04-29T08:58:54.815Z,72.90
2023-04-29T09:01:24.256Z,72.80
2023-04-29T09:04:04.303Z,72.70
2023-04-29T09:06:33.331Z,72.60
2023-04-29T09:09:02.962Z,72.60
2023-04-29T09:11:31.166Z,72.70
2023-04-29T09:14:02.485Z,72.70
2023-04-29T09:16:30.384Z,72.70
2023-04-29T09:18:57.642Z,72.60
2023-04-29T09:21:29.564Z,72.60
2023-04-29T09:24:02.212Z,72.60
2023-04-29T09:26:42.941Z,72.60
2023-04-29T09:29:14.432Z,72.80
2023-04-29T09:31:42.166Z,72.80
2023-04-29T09:34:10.006Z,72.80
2023-04-29T09:36:47.146Z,72.70
2023-04-29T09:39:19.700Z,72.80
2023-04-29T09:41:53.151Z,72.80
2023-04-29T09:44:22.684Z,72.80
2023-04-29T09:47:07.523Z,72.70
2023-04-29T09:49:52.722Z,72.70
2023-04-29T09:52:20.904Z,72.50
2023-04-29T09:54:47.971Z,72.50
2023-04-29T09:57:19.303Z,72.50
2023-04-29T09:59:46.194Z,72.40
2023-04-29T10:02:19.371Z,72.40
2023-04-29T10:04:49.317Z,72.30
2023-04-29T10:07:18.391Z,72.40
2023-04-29T10:09:47.764Z,72.40
2023-04-29T10:12:20.829Z,72.50
2023-04-29T10:15:18.509Z,72.60
2023-04-29T10:18:22.132Z,72.60
2023-04-29T10:20:50.609Z,72.70
2023-04-29T10:23:19.992Z,72.80
2023-04-29T10:25:48.172Z,72.90
2023-04-29T10:28:19.415Z,73.00
2023-04-29T10:30:51.992Z,73.00
2023-04-29T10:33:19.681Z,73.00
2023-04-29T10:35:49.564Z,73.00
2023-04-29T10:38:41.734Z,73.00
2023-04-29T10:41:25.439Z,73.10
2023-04-29T10:43:53.377Z,73.10
2023-04-29T10:46:21.150Z,73.10
2023-04-29T10:48:50.572Z,73.20
2023-04-29T10:51:33.183Z,73.10
2023-04-29T10:54:14.046Z,73.30
2023-04-29T10:56:54.520Z,73.20
2023-04-29T10:59:41.980Z,73.10
2023-04-29T11:02:10.967Z,73.10
2023-04-29T11:05:08.946Z,73.00
2023-04-29T11:07:36.179Z,72.90
2023-04-29T11:10:04.066Z,72.80
2023-04-29T11:12:32.232Z,72.70
2023-04-29T11:15:05.128Z,72.80
2023-04-29T11:17:38.230Z,72.80
2023-04-29T11:20:13.656Z,72.70
2023-04-29T11:22:40.732Z,72.80
2023-04-29T11:25:09.563Z,72.70
2023-04-29T11:27:40.670Z,72.70
2023-04-29T11:30:08.816Z,72.70
2023-04-29T11:32:42.791Z,72.70
2023-04-29T11:35:12.756Z,72.70
2023-04-29T11:37:41.402Z,72.60
2023-04-29T11:40:09.833Z,72.70
2023-04-29T11:42:48.056Z,72.60
2023-04-29T11:45:18.000Z,72.70
2023-04-29T11:47:47.236Z,72.60
2023-04-29T11:50:20.338Z,72.70
2023-04-29T11:52:49.338Z,72.70
2023-04-29T11:55:16.502Z,72.70
2023-04-29T11:57:43.777Z,72.60
2023-04-29T12:00:13.403Z,72.80
2023-04-29T12:02:46.284Z,72.80
2023-04-29T12:05:15.927Z,72.70
2023-04-29T12:07:43.432Z,72.70
2023-04-29T12:10:12.213Z,72.50
2023-04-29T12:12:46.682Z,72.20
2023-04-29T12:15:14.475Z,72.30
2023-04-29T12:17:43.328Z,73.20
2023-04-29T12:20:11.762Z,72.00
2023-04-29T12:22:38.905Z,71.80
2023-04-29T12:25:07.707Z,72.50
2023-04-29T12:27:36.178Z,71.60
2023-04-29T12:30:09.482Z,71.50
2023-04-29T12:32:37.279Z,71.10
2023-04-29T12:35:04.901Z,70.80
2023-04-29T12:37:34.183Z,70.70
2023-04-29T12:40:01.128Z,70.20
2023-04-29T12:42:34.188Z,70.20
2023-04-29T12:45:01.265Z,69.90
2023-04-29T12:47:36.953Z,69.60
2023-04-29T12:50:07.514Z,68.80
2023-04-29T12:52:36.544Z,69.20
2023-04-29T12:55:04.752Z,69.00
2023-04-29T12:57:31.996Z,69.00
2023-04-29T12:59:58.941Z,69.00
2023-04-29T13:02:26.420Z,68.90
2023-04-29T13:04:53.747Z,68.90
2023-04-29T13:07:20.951Z,68.80
2023-04-29T13:09:47.878Z,68.30
2023-04-29T13:12:14.851Z,68.20
2023-04-29T13:14:41.746Z,68.20
2023-04-29T13:17:08.913Z,68.40
2023-04-29T13:19:50.492Z,69.20
2023-04-29T13:22:18.704Z,68.50
2023-04-29T13:24:46.732Z,68.40
2023-04-29T13:27:13.854Z,68.60
2023-04-29T13:29:40.979Z,68.60
2023-04-29T13:32:08.861Z,68.60
2023-04-29T13:34:36.098Z,68.70
2023-04-29T13:37:03.253Z,68.20
2023-04-29T13:39:30.537Z,67.80
2023-04-29T13:41:59.231Z,67.40
2023-04-29T13:44:33.270Z,67.20
2023-04-29T13:47:06.924Z,66.80
2023-04-29T13:50:09.763Z,66.50
2023-04-29T13:55:25.700Z,65.90
2023-04-29T13:58:36.212Z,66.10
2023-04-29T14:01:01.304Z,66.30
2023-04-29T14:03:12.836Z,66.70
2023-04-29T14:05:39.994Z,66.60
2023-04-29T14:08:07.286Z,65.70
2023-04-29T14:10:34.568Z,65.80
2023-04-29T14:13:01.524Z,65.40
2023-04-29T14:15:28.936Z,65.30
2023-04-29T14:17:56.918Z,65.10
2023-04-29T14:20:23.902Z,64.80
2023-04-29T14:22:51.148Z,64.80
2023-04-29T14:25:18.531Z,64.70
2023-04-29T14:27:45.726Z,64.80
2023-04-29T14:30:13.167Z,64.80
2023-04-29T14:32:40.304Z,64.80
2023-04-29T14:35:07.963Z,65.00
2023-04-29T14:37:34.921Z,65.10
2023-04-29T14:40:01.935Z,65.00
2023-04-29T14:42:29.096Z,65.00
2023-04-29T14:44:56.253Z,65.10
2023-04-29T14:47:23.456Z,65.20
2023-04-29T14:49:50.459Z,65.30
2023-04-29T14:52:17.454Z,65.30
2023-04-29T14:54:44.690Z,65.30
2023-04-29T14:57:11.966Z,65.30
2023-04-29T14:59:38.885Z,65.20
2023-04-29T15:02:06.053Z,65.20
2023-04-29T15:04:33.036Z,65.20
2023-04-29T15:07:00.045Z,65.30
2023-04-29T15:09:27.232Z,65.30
2023-04-29T15:11:54.366Z,65.40
2023-04-29T15:14:21.685Z,65.50
2023-04-29T15:16:49.017Z,65.60
2023-04-29T15:19:16.303Z,65.90
2023-04-29T15:21:43.308Z,66.00
2023-04-29T15:24:10.452Z,66.10
2023-04-29T15:26:37.394Z,66.10
2023-04-29T15:29:04.339Z,66.10
2023-04-29T15:31:31.289Z,66.00
2023-04-29T15:33:58.454Z,65.90
2023-04-29T15:36:32.559Z,66.70
2023-04-29T15:38:59.525Z,65.60
2023-04-29T15:41:26.975Z,65.50
2023-04-29T15:43:55.018Z,65.50
2023-04-29T15:46:22.055Z,65.40
2023-04-29T15:48:49.196Z,65.30
2023-04-29T15:51:16.142Z,65.40
2023-04-29T15:53:44.501Z,65.50
2023-04-29T15:56:11.525Z,65.60
2023-04-29T15:58:38.410Z,65.60
2023-04-29T16:01:05.654Z,65.80
2023-04-29T16:03:32.744Z,65.90
2023-04-29T16:05:59.807Z,66.10
2023-04-29T16:08:27.024Z,66.20
2023-04-29T16:10:53.999Z,66.20
2023-04-29T16:13:20.974Z,66.30
2023-04-29T16:15:47.928Z,66.30
2023-04-29T16:18:14.833Z,66.30
2023-04-29T16:20:42.116Z,66.20
2023-04-29T16:23:09.171Z,66.10
2023-04-29T16:25:37.131Z,66.20
2023-04-29T16:28:04.235Z,66.10
2023-04-29T16:30:31.279Z,66.10
2023-04-29T16:32:58.226Z,66.00
2023-04-29T16:35:26.569Z,65.90
2023-04-29T16:37:53.862Z,65.90
2023-04-29T16:40:21.739Z,65.60
2023-04-29T16:42:48.836Z,65.50
2023-04-29T16:45:16.188Z,65.20
2023-04-29T16:47:43.586Z,65.10
2023-04-29T16:50:11.159Z,65.10
2023-04-29T16:52:38.041Z,65.20
2023-04-29T16:55:05.490Z,65.20
2023-04-29T16:57:33.585Z,65.20
2023-04-29T17:00:00.757Z,65.10
2023-04-29T17:02:27.854Z,65.20
2023-04-29T17:04:54.972Z,65.00
2023-04-29T17:07:21.999Z,65.20
2023-04-29T17:09:49.303Z,65.30
2023-04-29T17:12:16.527Z,65.30
2023-04-29T17:14:44.282Z,65.50
2023-04-29T17:17:11.209Z,65.60
2023-04-29T17:19:39.212Z,65.60
2023-04-29T17:22:06.650Z,65.60
2023-04-29T17:24:33.634Z,65.60
2023-04-29T17:27:00.581Z,65.60
2023-04-29T17:29:27.696Z,65.60
2023-04-29T17:31:59.436Z,65.60
2023-04-29T17:34:29.658Z,65.70
2023-04-29T17:36:56.649Z,65.70
2023-04-29T17:39:23.586Z,65.60
2023-04-29T17:41:50.742Z,65.70
2023-04-29T17:44:17.776Z,65.70
2023-04-29T17:46:44.881Z,65.70
2023-04-29T17:49:11.769Z,65.80
2023-04-29T17:51:38.936Z,65.80
2023-04-29T17:54:07.705Z,65.70
2023-04-29T17:56:35.441Z,65.70
2023-04-29T17:59:05.142Z,65.70
2023-04-29T18:01:33.250Z,65.80
2023-04-29T18:04:00.985Z,65.70
2023-04-29T18:06:30.219Z,65.70
2023-04-29T18:08:57.376Z,65.70
2023-04-29T18:11:25.085Z,65.60
2023-04-29T18:13:54.100Z,65.70
2023-04-29T18:16:21.188Z,65.70
2023-04-29T18:18:51.556Z,65.70
2023-04-29T18:21:27.631Z,66.50
2023-04-29T18:23:55.994Z,65.60
2023-04-29T18:26:23.499Z,65.70
2023-04-29T18:28:50.706Z,65.70
2023-04-29T18:31:18.956Z,65.70
2023-04-29T18:33:46.507Z,65.90
2023-04-29T18:36:14.310Z,65.60
2023-04-29T18:38:42.191Z,65.70
2023-04-29T18:41:09.224Z,65.70
2023-04-29T18:43:36.598Z,65.70
2023-04-29T18:46:03.868Z,65.70
2023-04-29T18:48:31.355Z,65.70
2023-04-29T18:51:00.227Z,65.70
2023-04-29T18:53:27.197Z,65.70
2023-04-29T18:55:54.613Z,65.80
2023-04-29T18:58:22.022Z,65.80
2023-04-29T19:00:49.124Z,65.90
2023-04-29T19:03:16.411Z,65.90
2023-04-29T19:05:43.684Z,66.80
2023-04-29T19:08:10.688Z,65.90
2023-04-29T19:10:37.695Z,65.90
2023-04-29T19:13:04.757Z,66.00
2023-04-29T19:15:32.092Z,66.00
2023-04-29T19:17:59.159Z,65.90
2023-04-29T19:20:26.678Z,65.90
2023-04-29T19:22:54.008Z,65.90
2023-04-29T19:25:21.709Z,66.00
2023-04-29T19:27:49.160Z,65.90
2023-04-29T19:30:16.587Z,65.90
2023-04-29T19:32:46.100Z,66.00
2023-04-29T19:35:13.317Z,66.00
2023-04-29T19:37:40.529Z,66.00
2023-04-29T19:40:10.875Z,66.00
2023-04-29T19:42:38.987Z,66.00
2023-04-29T19:45:07.792Z,66.00
2023-04-29T19:47:35.164Z,66.10
2023-04-29T19:50:02.501Z,66.00
2023-04-29T19:52:29.837Z,66.00
2023-04-29T19:54:57.286Z,66.00
2023-04-29T19:57:25.167Z,66.00
2023-04-29T19:59:52.722Z,65.90
2023-04-29T20:02:20.031Z,65.90
2023-04-29T20:04:48.148Z,65.90
2023-04-29T20:07:15.117Z,65.90
2023-04-29T20:09:42.073Z,65.90
2023-04-29T20:12:10.183Z,65.90
2023-04-29T20:14:37.206Z,65.90
2023-04-29T20:17:04.090Z,65.90
2023-04-29T20:19:31.345Z,65.90
2023-04-29T20:21:58.361Z,65.80
2023-04-29T20:24:25.370Z,65.80
2023-04-29T20:26:52.286Z,65.90
2023-04-29T20:29:19.332Z,65.70
2023-04-29T20:31:46.304Z,65.70
2023-04-29T20:34:13.519Z,65.70
2023-04-29T20:36:40.678Z,65.70
2023-04-29T20:39:09.244Z,65.80
2023-04-29T20:41:36.285Z,65.70
2023-04-29T20:44:04.356Z,65.70
2023-04-29T20:46:31.623Z,65.70
2023-04-29T20:48:58.615Z,65.70
2023-04-29T20:51:26.524Z,65.70
2023-04-29T20:53:53.674Z,65.70
2023-04-29T20:56:20.592Z,65.70
2023-04-29T20:58:47.570Z,65.70
2023-04-29T21:01:14.758Z,65.70
2023-04-29T21:03:41.775Z,65.70
2023-04-29T21:06:08.810Z,65.70
2023-04-29T21:08:35.978Z,65.80
2023-04-29T21:11:05.129Z,65.80
2023-04-29T21:13:32.244Z,65.80
2023-04-29T21:15:59.173Z,65.80
2023-04-29T21:18:26.390Z,65.80
2023-04-29T21:20:53.557Z,65.70
2023-04-29T21:23:20.564Z,65.80
2023-04-29T21:25:47.542Z,65.80
2023-04-29T21:28:16.778Z,65.80
2023-04-29T21:30:44.051Z,65.80
2023-04-29T21:33:11.137Z,66.70
2023-04-29T21:35:41.875Z,65.80
2023-04-29T21:38:09.356Z,65.90
2023-04-29T21:40:42.169Z,65.80
2023-04-29T21:43:10.722Z,65.90
2023-04-29T21:45:38.307Z,65.90
2023-04-29T21:48:18.089Z,65.90
2023-04-29T21:50:45.599Z,65.90
2023-04-29T21:53:15.375Z,65.80
2023-04-29T21:55:43.903Z,65.80
2023-04-29T21:58:11.265Z,65.90
2023-04-29T22:00:40.604Z,65.90
2023-04-29T22:03:09.122Z,65.90
2023-04-29T22:05:36.812Z,65.80
2023-04-29T22:08:07.112Z,65.70
2023-04-29T22:10:34.606Z,65.70
2023-04-29T22:13:01.510Z,65.70
2023-04-29T22:15:29.481Z,65.70
2023-04-29T22:17:57.832Z,65.70
2023-04-29T22:20:25.447Z,65.70
2023-04-29T22:22:52.649Z,65.70
2023-04-29T22:25:21.511Z,65.70
2023-04-29T22:27:49.192Z,65.70
2023-04-29T22:30:17.630Z,65.80
2023-04-29T22:32:44.921Z,65.80
2023-04-29T22:35:12.177Z,65.80
2023-04-29T22:37:39.101Z,65.70
2023-04-29T22:40:07.584Z,65.70
2023-04-29T22:42:34.549Z,65.70
2023-04-29T22:45:01.642Z,65.70
2023-04-29T22:47:29.025Z,65.70
2023-04-29T22:49:56.282Z,65.80
2023-04-29T22:52:23.393Z,65.80
2023-04-29T22:54:50.565Z,65.80
2023-04-29T22:57:17.428Z,65.70
2023-04-29T22:59:44.508Z,65.70
2023-04-29T23:02:11.898Z,65.70
2023-04-29T23:04:39.017Z,65.70
2023-04-29T23:07:06.000Z,65.80
2023-04-29T23:09:33.529Z,65.80
2023-04-29T23:12:01.064Z,65.80
2023-04-29T23:14:28.041Z,65.70
2023-04-29T23:16:55.075Z,65.80
2023-04-29T23:19:22.912Z,65.80
2023-04-29T23:21:49.850Z,65.90
2023-04-29T23:24:16.859Z,65.90
2023-04-29T23:26:44.216Z,65.90
2023-04-29T23:29:11.224Z,65.90
2023-04-29T23:31:38.096Z,65.90
2023-04-29T23:34:05.146Z,66.00
2023-04-29T23:36:32.512Z,65.90
2023-04-29T23:38:59.425Z,65.90
2023-04-29T23:41:26.464Z,65.90
2023-04-29T23:43:54.716Z,65.90
2023-04-29T23:46:21.631Z,66.00
2023-04-29T23:48:48.568Z,66.00
2023-04-29T23:51:15.661Z,66.00
2023-04-29T23:53:42.653Z,66.00
2023-04-29T23:56:09.766Z,65.90
2023-04-29T23:58:37.167Z,65.90
